createdAt,value
2018-04-26T00:01:40.801Z,7.70
2018-04-26T00:04:08.103Z,7.70
2018-04-26T00:06:34.321Z,7.70
2018-04-26T00:09:00.559Z,7.70
2018-04-26T00:11:26.905Z,7.80
2018-04-26T00:13:53.241Z,7.80
2018-04-26T00:16:19.533Z,7.80
2018-04-26T00:18:45.809Z,7.80
2018-04-26T00:21:12.135Z,7.80
2018-04-26T00:23:38.552Z,7.80
2018-04-26T00:26:04.785Z,7.80
2018-04-26T00:28:31.200Z,7.90
2018-04-26T00:30:57.462Z,7.80
2018-04-26T00:33:23.768Z,7.80
2018-04-26T00:35:50.159Z,7.80
2018-04-26T00:38:17.149Z,7.70
2018-04-26T00:40:43.480Z,7.60
2018-04-26T00:43:09.717Z,7.60
2018-04-26T00:45:35.956Z,7.60
2018-04-26T00:48:02.325Z,7.60
2018-04-26T00:50:28.486Z,7.60
2018-04-26T00:52:54.772Z,7.70
2018-04-26T00:55:21.095Z,7.70
2018-04-26T00:57:47.356Z,7.70
2018-04-26T01:00:13.582Z,7.70
2018-04-26T01:02:39.930Z,7.70
2018-04-26T01:05:06.187Z,7.70
2018-04-26T01:07:32.420Z,7.70
2018-04-26T01:09:58.659Z,7.70
2018-04-26T01:12:24.897Z,7.70
2018-04-26T01:14:51.480Z,7.70
2018-04-26T01:17:17.860Z,7.70
2018-04-26T01:19:44.099Z,7.70
2018-04-26T01:22:10.370Z,7.70
2018-04-26T01:24:36.852Z,7.70
2018-04-26T01:27:03.155Z,7.70
2018-04-26T01:29:29.449Z,7.70
2018-04-26T01:31:56.519Z,7.80
2018-04-26T01:34:22.755Z,7.70
2018-04-26T01:37:01.283Z,7.80
2018-04-26T01:39:27.669Z,7.80
2018-04-26T01:41:54.680Z,7.80
2018-04-26T01:44:21.036Z,7.70
2018-04-26T01:46:48.999Z,7.80
2018-04-26T01:49:15.217Z,7.80
2018-04-26T01:51:41.588Z,7.80
2018-04-26T01:54:08.585Z,7.80
2018-04-26T01:56:34.863Z,7.80
2018-04-26T01:59:01.838Z,7.90
2018-04-26T02:01:28.152Z,7.80
2018-04-26T02:03:54.383Z,7.90
2018-04-26T02:06:20.692Z,7.90
2018-04-26T02:08:47.813Z,7.90
2018-04-26T02:11:14.070Z,7.90
2018-04-26T02:13:41.141Z,8.00
2018-04-26T02:16:07.437Z,8.00
2018-04-26T02:18:33.731Z,8.00
2018-04-26T02:20:59.968Z,8.00
2018-04-26T02:23:26.354Z,8.00
2018-04-26T02:25:53.380Z,8.00
2018-04-26T02:28:19.718Z,8.00
2018-04-26T02:30:46.845Z,8.00
2018-04-26T02:33:13.244Z,7.90
2018-04-26T02:35:39.553Z,8.00
2018-04-26T02:38:06.535Z,8.00
2018-04-26T02:40:32.925Z,8.00
2018-04-26T02:43:00.022Z,7.90
2018-04-26T02:45:26.304Z,7.90
2018-04-26T02:47:53.432Z,7.90
2018-04-26T02:50:19.688Z,7.80
2018-04-26T02:52:46.024Z,7.90
2018-04-26T02:55:12.276Z,7.80
2018-04-26T02:57:38.579Z,7.80
2018-04-26T03:00:05.642Z,7.90
2018-04-26T03:02:31.911Z,7.90
2018-04-26T03:04:58.156Z,7.90
2018-04-26T03:07:24.413Z,7.90
2018-04-26T03:09:51.513Z,7.90
2018-04-26T03:12:17.754Z,7.90
2018-04-26T03:14:43.987Z,7.90
2018-04-26T03:17:10.240Z,7.90
2018-04-26T03:19:37.485Z,7.90
2018-04-26T03:22:03.721Z,7.90
2018-04-26T03:24:30.702Z,7.90
2018-04-26T03:26:56.946Z,7.90
2018-04-26T03:29:23.776Z,7.90
2018-04-26T03:31:50.080Z,7.90
2018-04-26T03:34:17.089Z,7.90
2018-04-26T03:36:43.501Z,7.90
2018-04-26T03:39:09.800Z,7.90
2018-04-26T03:41:37.234Z,7.90
2018-04-26T03:44:03.552Z,7.90
2018-04-26T03:46:29.883Z,7.90
2018-04-26T03:48:56.247Z,7.90
2018-04-26T03:51:23.249Z,7.90
2018-04-26T03:53:49.534Z,7.90
2018-04-26T03:56:15.837Z,7.90
2018-04-26T03:58:42.132Z,7.80
2018-04-26T04:01:20.552Z,7.80
2018-04-26T04:03:59.161Z,7.80
2018-04-26T04:06:25.398Z,7.80
2018-04-26T04:08:51.663Z,7.80
2018-04-26T04:11:18.725Z,7.80
2018-04-26T04:13:46.179Z,7.90
2018-04-26T04:16:13.236Z,7.90
2018-04-26T04:18:40.224Z,7.90
2018-04-26T04:21:06.521Z,7.80
2018-04-26T04:23:33.504Z,7.90
2018-04-26T04:25:59.864Z,7.90
2018-04-26T04:28:26.513Z,7.90
2018-04-26T04:30:52.823Z,7.90
2018-04-26T04:33:19.200Z,8.00
2018-04-26T04:35:46.273Z,7.90
2018-04-26T04:38:12.575Z,7.90
2018-04-26T04:40:39.554Z,8.00
2018-04-26T04:43:05.793Z,7.90
2018-04-26T04:45:32.035Z,8.00
2018-04-26T04:47:58.283Z,8.00
2018-04-26T04:50:24.541Z,8.00
2018-04-26T04:52:52.135Z,8.00
2018-04-26T04:55:18.397Z,8.00
2018-04-26T04:57:44.720Z,8.00
2018-04-26T05:00:11.049Z,8.00
2018-04-26T05:02:37.553Z,8.00
2018-04-26T05:05:03.886Z,8.00
2018-04-26T05:07:30.170Z,8.00
2018-04-26T05:09:56.612Z,8.00
2018-04-26T05:12:22.996Z,8.00
2018-04-26T05:14:49.271Z,8.00
2018-04-26T05:17:16.716Z,8.00
2018-04-26T05:19:42.969Z,8.00
2018-04-26T05:22:09.176Z,8.00
2018-04-26T05:24:35.564Z,8.10
2018-04-26T05:27:01.804Z,8.10
2018-04-26T05:29:28.100Z,8.10
2018-04-26T05:31:55.083Z,8.00
2018-04-26T05:34:21.345Z,8.00
2018-04-26T05:36:47.685Z,8.00
2018-04-26T05:39:15.066Z,8.00
2018-04-26T05:41:41.464Z,8.00
2018-04-26T05:44:07.764Z,8.10
2018-04-26T05:46:34.100Z,8.00
2018-04-26T05:49:00.411Z,8.00
2018-04-26T05:51:26.674Z,8.10
2018-04-26T05:53:53.701Z,8.20
2018-04-26T05:56:20.684Z,8.20
2018-04-26T05:58:47.004Z,8.10
2018-04-26T06:01:13.403Z,8.10
2018-04-26T06:03:39.760Z,8.10
2018-04-26T06:06:06.034Z,8.20
2018-04-26T06:08:33.044Z,8.20
2018-04-26T06:10:59.438Z,8.20
2018-04-26T06:13:25.959Z,8.20
2018-04-26T06:15:52.262Z,8.10
2018-04-26T06:18:19.866Z,8.20
2018-04-26T06:20:46.808Z,8.20
2018-04-26T06:23:13.118Z,8.20
2018-04-26T06:25:39.415Z,8.20
2018-04-26T06:28:06.663Z,8.20
2018-04-26T06:30:32.945Z,8.20
2018-04-26T06:32:59.329Z,8.20
2018-04-26T06:35:25.795Z,8.20
2018-04-26T06:37:52.944Z,8.20
2018-04-26T06:40:19.233Z,8.10
2018-04-26T06:42:45.565Z,8.10
2018-04-26T06:45:11.857Z,8.10
2018-04-26T06:47:38.283Z,8.10
2018-04-26T06:50:05.788Z,8.10
2018-04-26T06:52:31.997Z,8.00
2018-04-26T06:54:58.233Z,8.00
2018-04-26T06:57:24.472Z,8.00
2018-04-26T06:59:50.752Z,8.00
2018-04-26T07:02:17.727Z,8.10
2018-04-26T07:04:43.940Z,8.10
2018-04-26T07:07:10.871Z,8.20
2018-04-26T07:09:37.932Z,8.20
2018-04-26T07:12:05.090Z,8.30
2018-04-26T07:14:31.237Z,8.20
2018-04-26T07:16:57.590Z,8.20
2018-04-26T07:19:23.816Z,8.10
2018-04-26T07:21:50.154Z,8.10
2018-04-26T07:24:16.396Z,8.10
2018-04-26T07:26:42.600Z,8.10
2018-04-26T07:29:08.860Z,8.10
2018-04-26T07:31:35.078Z,8.00
2018-04-26T07:34:01.301Z,8.10
2018-04-26T07:36:27.535Z,8.20
2018-04-26T07:38:53.783Z,8.30
2018-04-26T07:41:19.991Z,8.30
2018-04-26T07:43:46.200Z,8.50
2018-04-26T07:46:12.838Z,8.60
2018-04-26T07:48:39.032Z,8.70
2018-04-26T07:51:05.328Z,8.90
2018-04-26T07:53:31.620Z,9.10
2018-04-26T07:55:57.989Z,9.10
2018-04-26T07:58:24.211Z,9.00
2018-04-26T08:00:50.665Z,9.00
2018-04-26T08:03:17.608Z,9.20
2018-04-26T08:05:43.820Z,9.20
2018-04-26T08:08:10.030Z,9.20
2018-04-26T08:10:36.264Z,9.10
2018-04-26T08:13:02.564Z,9.20
2018-04-26T08:15:28.804Z,9.20
2018-04-26T08:17:55.003Z,9.20
2018-04-26T08:20:21.961Z,9.20
2018-04-26T08:22:48.287Z,9.20
2018-04-26T08:25:14.586Z,9.30
2018-04-26T08:27:40.843Z,9.40
2018-04-26T08:30:07.040Z,9.50
2018-04-26T08:32:33.352Z,9.60
2018-04-26T08:34:59.566Z,9.80
2018-04-26T08:37:25.861Z,9.90
2018-04-26T08:39:52.134Z,10.00
2018-04-26T08:42:18.511Z,10.10
2018-04-26T08:44:45.444Z,10.50
2018-04-26T08:47:11.736Z,10.50
2018-04-26T08:49:37.984Z,10.50
2018-04-26T08:52:04.299Z,10.50
2018-04-26T08:54:30.610Z,10.60
2018-04-26T08:56:56.831Z,11.00
2018-04-26T08:59:23.042Z,10.90
2018-04-26T09:01:49.303Z,11.00
2018-04-26T09:04:16.875Z,11.10
2018-04-26T09:06:43.121Z,11.10
2018-04-26T09:09:09.354Z,11.30
2018-04-26T09:11:36.343Z,11.50
2018-04-26T09:14:02.567Z,11.50
2018-04-26T09:16:29.599Z,11.80
2018-04-26T09:18:56.595Z,11.70
2018-04-26T09:21:22.819Z,11.70
2018-04-26T09:23:49.048Z,11.60
2018-04-26T09:26:15.309Z,11.70
2018-04-26T09:28:41.648Z,11.70
2018-04-26T09:31:07.852Z,11.90
2018-04-26T09:33:34.132Z,12.30
2018-04-26T09:36:00.353Z,12.40
2018-04-26T09:38:26.552Z,12.30
2018-04-26T09:40:52.844Z,12.30
2018-04-26T09:43:19.101Z,12.30
2018-04-26T09:45:45.420Z,12.10
2018-04-26T09:48:11.644Z,11.70
2018-04-26T09:50:37.950Z,11.30
2018-04-26T09:53:04.190Z,10.80
2018-04-26T09:55:30.592Z,10.50
2018-04-26T09:57:56.782Z,10.30
2018-04-26T10:00:27.074Z,10.40
2018-04-26T10:02:53.360Z,10.30
2018-04-26T10:05:19.602Z,10.20
2018-04-26T10:07:45.968Z,10.20
2018-04-26T10:10:12.275Z,10.30
2018-04-26T10:12:38.648Z,10.20
2018-04-26T10:15:04.967Z,10.30
2018-04-26T10:17:31.147Z,10.50
2018-04-26T10:19:57.424Z,10.40
2018-04-26T10:22:23.636Z,10.60
2018-04-26T10:24:51.011Z,10.90
2018-04-26T10:27:17.208Z,10.90
2018-04-26T10:29:44.182Z,11.50
2018-04-26T10:32:10.427Z,11.40
2018-04-26T10:34:36.632Z,11.60
2018-04-26T10:37:02.936Z,11.80
2018-04-26T10:39:29.902Z,12.20
2018-04-26T10:41:56.956Z,12.50
2018-04-26T10:44:23.174Z,12.50
2018-04-26T10:46:50.106Z,12.50
2018-04-26T10:49:17.091Z,12.40
2018-04-26T10:51:43.276Z,12.40
2018-04-26T10:54:10.272Z,11.90
2018-04-26T10:56:36.474Z,11.90
2018-04-26T10:59:02.792Z,11.40
2018-04-26T11:01:29.751Z,10.70
2018-04-26T11:03:55.974Z,10.70
2018-04-26T11:06:22.936Z,9.40
2018-04-26T11:08:49.168Z,9.30
2018-04-26T11:11:15.396Z,9.10
2018-04-26T11:13:41.664Z,9.10
2018-04-26T11:16:07.918Z,9.10
2018-04-26T11:18:34.188Z,9.10
2018-04-26T11:21:00.400Z,9.00
2018-04-26T11:23:26.627Z,9.10
2018-04-26T11:25:52.869Z,9.20
2018-04-26T11:28:19.221Z,9.30
2018-04-26T11:30:45.419Z,9.50
2018-04-26T11:33:11.647Z,9.80
2018-04-26T11:35:37.860Z,10.20
2018-04-26T11:38:04.988Z,10.70
2018-04-26T11:40:31.204Z,10.70
2018-04-26T11:42:57.408Z,11.00
2018-04-26T11:45:23.730Z,11.30
2018-04-26T11:47:49.948Z,11.40
2018-04-26T11:50:16.132Z,11.30
2018-04-26T11:52:42.332Z,11.10
2018-04-26T11:55:08.540Z,11.00
2018-04-26T11:57:34.787Z,11.00
2018-04-26T12:00:01.028Z,11.30
2018-04-26T12:02:27.238Z,11.50
2018-04-26T12:04:53.643Z,11.80
2018-04-26T12:07:20.589Z,12.10
2018-04-26T12:09:47.611Z,12.10
2018-04-26T12:12:13.920Z,12.10
2018-04-26T12:14:40.174Z,12.20
2018-04-26T12:17:06.422Z,12.20
2018-04-26T12:19:33.388Z,11.80
2018-04-26T12:21:59.820Z,11.80
2018-04-26T12:24:26.044Z,11.70
2018-04-26T12:26:52.436Z,11.80
2018-04-26T12:29:18.662Z,11.70
2018-04-26T12:31:44.912Z,11.80
2018-04-26T12:34:11.873Z,11.50
2018-04-26T12:36:38.827Z,11.40
2018-04-26T12:39:05.204Z,11.40
2018-04-26T12:41:31.412Z,11.30
2018-04-26T12:43:57.607Z,11.30
2018-04-26T12:46:24.690Z,10.80
2018-04-26T12:48:50.883Z,10.80
2018-04-26T12:51:17.830Z,10.60
2018-04-26T12:53:44.799Z,10.50
2018-04-26T12:56:11.027Z,10.50
2018-04-26T12:58:37.231Z,10.40
2018-04-26T13:01:03.464Z,10.50
2018-04-26T13:03:30.425Z,10.60
2018-04-26T13:05:57.098Z,10.60
2018-04-26T13:08:23.442Z,10.80
2018-04-26T13:10:49.829Z,11.20
2018-04-26T13:13:16.104Z,11.40
2018-04-26T13:15:42.778Z,11.80
2018-04-26T13:18:09.795Z,12.30
2018-04-26T13:20:36.011Z,12.20
2018-04-26T13:23:02.256Z,12.40
2018-04-26T13:25:28.476Z,12.40
2018-04-26T13:27:54.703Z,12.40
2018-04-26T13:30:20.936Z,12.30
2018-04-26T13:32:47.170Z,12.10
2018-04-26T13:35:14.204Z,11.90
2018-04-26T13:37:40.444Z,11.80
2018-04-26T13:40:07.422Z,11.80
2018-04-26T13:42:34.548Z,11.80
2018-04-26T13:45:01.280Z,11.70
2018-04-26T13:47:27.592Z,11.80
2018-04-26T13:49:53.813Z,11.90
2018-04-26T13:52:20.104Z,12.10
2018-04-26T13:54:47.106Z,12.50
2018-04-26T13:57:13.454Z,12.50
2018-04-26T13:59:39.767Z,12.60
2018-04-26T14:02:06.024Z,12.50
2018-04-26T14:04:32.249Z,12.30
2018-04-26T14:06:58.490Z,12.10
2018-04-26T14:09:25.451Z,11.40
2018-04-26T14:11:51.753Z,11.40
2018-04-26T14:14:17.960Z,11.40
2018-04-26T14:16:44.951Z,11.80
2018-04-26T14:19:11.334Z,11.80
2018-04-26T14:21:37.608Z,12.10
2018-04-26T14:24:04.600Z,12.40
2018-04-26T14:26:30.962Z,12.30
2018-04-26T14:28:57.171Z,12.40
2018-04-26T14:31:23.400Z,12.60
2018-04-26T14:33:49.641Z,12.60
2018-04-26T14:36:15.880Z,12.40
2018-04-26T14:38:42.127Z,12.40
2018-04-26T14:41:08.315Z,12.40
2018-04-26T14:43:34.528Z,12.70
2018-04-26T14:46:00.713Z,12.70
2018-04-26T14:48:28.158Z,12.30
2018-04-26T14:50:54.484Z,12.30
2018-04-26T14:53:20.686Z,12.20
2018-04-26T14:55:47.003Z,12.40
2018-04-26T14:58:13.260Z,12.40
2018-04-26T15:00:39.583Z,12.60
2018-04-26T15:03:05.917Z,12.60
2018-04-26T15:05:32.215Z,12.70
2018-04-26T15:07:58.428Z,12.70
2018-04-26T15:10:25.376Z,12.80
2018-04-26T15:12:52.376Z,12.80
2018-04-26T15:15:18.722Z,12.70
2018-04-26T15:17:44.892Z,12.70
2018-04-26T15:20:11.142Z,12.60
2018-04-26T15:22:37.348Z,12.50
2018-04-26T15:25:03.716Z,12.50
2018-04-26T15:27:29.980Z,12.40
2018-04-26T15:29:56.944Z,12.30
2018-04-26T15:32:23.906Z,12.20
2018-04-26T15:34:50.538Z,12.20
2018-04-26T15:37:16.795Z,12.30
2018-04-26T15:39:43.027Z,12.40
2018-04-26T15:42:09.276Z,12.40
2018-04-26T15:44:35.479Z,12.40
2018-04-26T15:47:01.779Z,12.30
2018-04-26T15:49:28.775Z,12.20
2018-04-26T15:51:55.200Z,12.10
2018-04-26T15:54:33.656Z,12.40
2018-04-26T15:57:12.751Z,12.40
2018-04-26T15:59:51.403Z,12.40
2018-04-26T16:05:57.830Z,12.20
2018-04-26T16:08:37.015Z,12.20
2018-04-26T16:11:21.405Z,12.20
2018-04-26T16:14:04.810Z,12.20
2018-04-26T16:16:49.462Z,12.10
2018-04-26T16:19:34.158Z,12.10
2018-04-26T16:22:18.903Z,12.10
2018-04-26T16:24:57.469Z,12.30
2018-04-26T16:27:42.206Z,12.30
2018-04-26T16:30:20.677Z,12.20
2018-04-26T16:33:04.961Z,12.10
2018-04-26T16:35:55.082Z,12.10
2018-04-26T16:38:33.615Z,11.90
2018-04-26T16:40:59.863Z,11.90
2018-04-26T16:43:25.987Z,11.90
2018-04-26T16:45:52.133Z,11.90
2018-04-26T16:48:18.250Z,11.90
2018-04-26T16:50:45.132Z,11.80
2018-04-26T16:53:11.995Z,11.80
2018-04-26T16:55:38.125Z,11.80
2018-04-26T16:58:04.298Z,11.80
2018-04-26T17:00:30.481Z,11.90
2018-04-26T17:02:56.990Z,12.00
2018-04-26T17:05:23.141Z,12.00
2018-04-26T17:07:50.070Z,11.90
2018-04-26T17:10:16.330Z,11.90
2018-04-26T17:12:43.232Z,12.00
2018-04-26T17:15:09.389Z,11.90
2018-04-26T17:17:35.547Z,12.00
2018-04-26T17:20:02.482Z,12.10
2018-04-26T17:22:29.374Z,12.00
2018-04-26T17:24:55.589Z,12.00
2018-04-26T17:27:22.451Z,11.90
2018-04-26T17:29:48.592Z,12.00
2018-04-26T17:32:14.746Z,11.90
2018-04-26T17:34:40.921Z,11.90
2018-04-26T17:37:07.707Z,11.80
2018-04-26T17:39:33.842Z,11.80
2018-04-26T17:42:00.015Z,11.80
2018-04-26T17:44:27.472Z,11.70
2018-04-26T17:46:54.340Z,11.60
2018-04-26T17:49:20.552Z,11.60
2018-04-26T17:51:46.839Z,11.60
2018-04-26T17:54:13.053Z,11.50
2018-04-26T17:56:39.954Z,11.40
2018-04-26T17:59:06.125Z,11.40
2018-04-26T18:01:32.318Z,11.30
2018-04-26T18:03:58.610Z,11.30
2018-04-26T18:06:24.781Z,11.20
2018-04-26T18:08:50.912Z,11.20
2018-04-26T18:11:17.119Z,11.20
2018-04-26T18:13:43.337Z,11.10
2018-04-26T18:16:09.480Z,11.10
2018-04-26T18:18:35.610Z,11.00
2018-04-26T18:21:01.765Z,11.00
2018-04-26T18:23:28.051Z,10.90
2018-04-26T18:25:54.185Z,10.90
2018-04-26T18:28:20.309Z,10.80
2018-04-26T18:30:47.233Z,10.70
2018-04-26T18:33:13.364Z,10.70
2018-04-26T18:35:39.671Z,10.70
2018-04-26T18:38:05.909Z,10.60
2018-04-26T18:40:32.107Z,10.60
2018-04-26T18:42:58.238Z,10.50
2018-04-26T18:45:24.633Z,10.50
2018-04-26T18:47:51.554Z,10.30
2018-04-26T18:50:17.829Z,10.30
2018-04-26T18:52:44.129Z,10.30
2018-04-26T18:55:10.295Z,10.20
2018-04-26T18:57:36.534Z,10.20
2018-04-26T19:00:02.803Z,10.20
2018-04-26T19:02:28.951Z,10.10
2018-04-26T19:04:55.176Z,10.10
2018-04-26T19:07:22.050Z,9.80
2018-04-26T19:09:48.174Z,9.80
2018-04-26T19:12:14.349Z,9.70
2018-04-26T19:14:40.505Z,9.60
2018-04-26T19:17:07.441Z,9.30
2018-04-26T19:19:33.636Z,9.30
2018-04-26T19:21:59.828Z,9.30
2018-04-26T19:24:26.706Z,9.20
2018-04-26T19:26:52.962Z,9.10
2018-04-26T19:29:20.166Z,9.00
2018-04-26T19:31:46.298Z,9.00
2018-04-26T19:34:13.174Z,8.80
2018-04-26T19:36:39.391Z,8.80
2018-04-26T19:39:05.652Z,8.90
2018-04-26T19:41:31.771Z,9.00
2018-04-26T19:43:58.009Z,8.90
2018-04-26T19:46:24.214Z,8.80
2018-04-26T19:48:50.422Z,8.70
2018-04-26T19:51:16.754Z,8.70
2018-04-26T19:53:42.909Z,8.60
2018-04-26T19:56:09.101Z,8.50
2018-04-26T19:58:36.098Z,8.40
2018-04-26T20:01:02.365Z,8.30
2018-04-26T20:03:28.609Z,8.40
2018-04-26T20:05:54.801Z,8.50
2018-04-26T20:08:21.111Z,8.60
2018-04-26T20:10:48.022Z,8.60
2018-04-26T20:13:14.432Z,8.60
2018-04-26T20:15:41.417Z,8.60
2018-04-26T20:18:07.550Z,8.50
2018-04-26T20:20:34.425Z,8.70
2018-04-26T20:23:01.514Z,8.70
2018-04-26T20:25:27.670Z,8.70
2018-04-26T20:27:53.938Z,8.50
2018-04-26T20:30:20.804Z,8.20
2018-04-26T20:32:46.937Z,8.30
2018-04-26T20:35:13.165Z,8.20
2018-04-26T20:37:39.421Z,8.30
2018-04-26T20:40:05.618Z,8.30
2018-04-26T20:42:31.944Z,8.20
2018-04-26T20:44:58.171Z,8.10
2018-04-26T20:47:25.451Z,8.00
2018-04-26T20:49:51.745Z,7.90
2018-04-26T20:52:17.887Z,7.90
2018-04-26T20:54:44.186Z,7.80
2018-04-26T20:57:11.057Z,7.80
2018-04-26T20:59:37.465Z,7.80
2018-04-26T21:02:04.354Z,7.80
2018-04-26T21:04:31.358Z,7.80
2018-04-26T21:06:57.609Z,7.90
2018-04-26T21:09:24.523Z,7.80
2018-04-26T21:11:50.661Z,7.70
2018-04-26T21:14:16.941Z,7.70
2018-04-26T21:16:43.073Z,7.70
2018-04-26T21:19:10.048Z,7.70
2018-04-26T21:21:36.978Z,7.80
2018-04-26T21:24:04.290Z,7.90
2018-04-26T21:26:30.481Z,7.80
2018-04-26T21:28:56.627Z,7.80
2018-04-26T21:31:22.922Z,7.70
2018-04-26T21:33:49.089Z,7.50
2018-04-26T21:36:15.401Z,7.40
2018-04-26T21:38:41.574Z,7.40
2018-04-26T21:41:07.694Z,7.30
2018-04-26T21:43:33.832Z,7.30
2018-04-26T21:45:59.990Z,7.20
2018-04-26T21:48:26.125Z,7.00
2018-04-26T21:50:58.441Z,7.00
2018-04-26T21:53:30.805Z,7.00
2018-04-26T21:56:03.472Z,7.00
2018-04-26T21:58:35.751Z,7.10
2018-04-26T22:01:08.053Z,7.20
2018-04-26T22:03:47.142Z,7.20
2018-04-26T22:06:14.069Z,7.30
2018-04-26T22:08:40.186Z,7.30
2018-04-26T22:11:06.341Z,7.30
2018-04-26T22:13:32.474Z,7.30
2018-04-26T22:15:58.595Z,7.20
2018-04-26T22:18:24.827Z,7.30
2018-04-26T22:20:50.997Z,7.30
2018-04-26T22:23:17.170Z,7.40
2018-04-26T22:25:43.381Z,7.40
2018-04-26T22:28:10.320Z,7.30
2018-04-26T22:30:37.240Z,7.20
2018-04-26T22:33:03.380Z,7.20
2018-04-26T22:35:29.501Z,7.20
2018-04-26T22:37:55.682Z,7.20
2018-04-26T22:40:21.846Z,7.20
2018-04-26T22:42:47.987Z,7.30
2018-04-26T22:45:14.877Z,7.30
2018-04-26T22:47:41.042Z,7.20
2018-04-26T22:50:07.279Z,7.20
2018-04-26T22:52:33.410Z,7.20
2018-04-26T22:54:59.673Z,7.10
2018-04-26T22:57:25.821Z,7.00
2018-04-26T22:59:52.767Z,6.90
2018-04-26T23:02:18.916Z,6.90
2018-04-26T23:04:45.104Z,6.80
2018-04-26T23:07:11.809Z,6.60
2018-04-26T23:09:37.936Z,6.60
2018-04-26T23:12:04.173Z,6.60
2018-04-26T23:14:30.314Z,6.60
2018-04-26T23:16:57.130Z,6.60
2018-04-26T23:19:23.250Z,6.60
2018-04-26T23:21:50.148Z,6.40
2018-04-26T23:24:16.289Z,6.40
2018-04-26T23:26:42.405Z,6.40
2018-04-26T23:29:08.557Z,6.50
2018-04-26T23:31:34.743Z,6.50
2018-04-26T23:34:00.908Z,6.50
2018-04-26T23:36:27.862Z,6.20
2018-04-26T23:38:54.001Z,6.20
2018-04-26T23:41:20.152Z,6.20
2018-04-26T23:43:46.305Z,6.20
2018-04-26T23:46:13.213Z,6.30
2018-04-26T23:48:40.378Z,6.30
2018-04-26T23:51:06.618Z,6.30
2018-04-26T23:53:32.921Z,6.40
2018-04-26T23:55:59.094Z,6.40
2018-04-26T23:58:25.255Z,6.30
